Terminal Aerodrome Forecast
Issued by NWS

Home | Current Version | Previous Version | Text Only | Print | Product List | Glossary On
Versions: 1 2 3 4 5 6 7 8 9 10 11 12 13 14 15
826
FTUS45 KTFX 242354
TAFHLN
TAF
KHLN 242354Z 2500/2524 01006KT P6SM VCSH SCT040 BKN080
      TEMPO 2500/2503 -SHRA BKN040
     FM250300 28005KT P6SM BKN060
     FM250700 25005KT P6SM BKN100
     FM251800 28010KT P6SM SCT040 BKN080 PROB30 2521/2524 -TSRA
      BKN040CB=

USA.gov is the U.S. government's official web portal to all federal, state and local government web resources and services.